Time;durP1;ratioP1;P1;durP2;ratioP2;P2;SDS_P1;SDS_P2;PMS_P1;PMS_P2;Temp;Humidity;BMP_temperature;BMP_pressure;BME280_temperature;BME280_humidity;BME280_pressure;Samples;Min_cycle;Max_cycle;Signal;HPM_P1;HPM_P2
2023/09/09 00:01:49;;;;;;;10.55;8.98;;;;;;;17.40;100.00;100023.25;4751950;30;20031;-92
2023/09/09 00:04:14;;;;;;;10.48;9.38;;;;;;;17.40;100.00;100029.38;4752088;30;20483;-92
2023/09/09 00:06:40;;;;;;;10.45;8.65;;;;;;;17.40;100.00;100025.88;4737286;30;20036;-92
2023/09/09 00:09:26;;;;;;;10.30;8.75;;;;;;;17.39;100.00;100032.94;4735027;30;20410;-94
2023/09/09 00:11:51;;;;;;;13.07;9.40;;;;;;;17.27;100.00;100001.34;4705180;30;20049;-93
2023/09/09 00:14:16;;;;;;;12.93;10.18;;;;;;;17.34;100.00;100019.25;4716051;30;20067;-92
2023/09/09 00:16:42;;;;;;;10.93;9.73;;;;;;;17.29;100.00;100010.84;4701299;30;20547;-91
2023/09/09 00:19:07;;;;;;;11.43;10.23;;;;;;;17.28;100.00;100008.31;4701346;30;20514;-92
2023/09/09 00:21:33;;;;;;;10.60;9.50;;;;;;;17.00;100.00;99960.19;4700895;30;20044;-92
2023/09/09 00:23:59;;;;;;;13.02;10.02;;;;;;;17.10;100.00;99970.91;4715606;30;20548;-92
2023/09/09 00:26:27;;;;;;;11.30;10.05;;;;;;;17.31;100.00;100010.72;4700916;30;20052;-93
2023/09/09 00:28:53;;;;;;;11.15;9.95;;;;;;;17.33;100.00;100007.03;4700814;30;20049;-92
2023/09/09 00:31:18;;;;;;;11.07;9.68;;;;;;;17.15;100.00;99977.56;4701115;30;20045;-91
2023/09/09 00:33:44;;;;;;;10.88;9.23;;;;;;;17.31;100.00;100006.28;4701041;30;20091;-94
2023/09/09 00:36:09;;;;;;;11.65;10.35;;;;;;;17.32;100.00;100001.88;4701146;30;20412;-93
2023/09/09 00:38:35;;;;;;;11.27;9.95;;;;;;;17.32;100.00;100007.13;4710014;30;20152;-92
2023/09/09 00:41:17;;;;;;;13.77;10.60;;;;;;;17.26;100.00;99994.41;4701049;30;20122;-92
2023/09/09 00:43:44;;;;;;;12.90;10.38;;;;;;;17.24;100.00;99999.78;4731805;30;20084;-93
2023/09/09 00:46:11;;;;;;;11.18;9.98;;;;;;;17.29;100.00;100018.72;4737180;30;20039;-92
2023/09/09 00:48:37;;;;;;;12.40;10.80;;;;;;;17.13;100.00;99978.63;4751322;30;20042;-92
2023/09/09 00:51:04;;;;;;;12.57;10.45;;;;;;;17.32;100.00;100004.50;4736588;30;20054;-92
2023/09/09 00:53:30;;;;;;;11.50;9.50;;;;;;;17.31;100.00;100003.66;4736378;30;20028;-91
2023/09/09 00:55:55;;;;;;;11.75;9.63;;;;;;;17.26;100.00;100000.50;4736615;30;20506;-92
2023/09/09 00:58:22;;;;;;;11.15;9.73;;;;;;;17.06;100.00;99967.66;4736272;30;20040;-92
2023/09/09 01:00:48;;;;;;;12.30;10.40;;;;;;;17.29;100.00;100010.84;4736768;30;20035;-93
2023/09/09 01:03:13;;;;;;;12.45;10.63;;;;;;;17.29;100.00;100008.19;4736827;30;20029;-92
2023/09/09 01:05:39;;;;;;;14.30;11.45;;;;;;;17.18;100.00;99989.66;4736574;30;20402;-92
2023/09/09 01:08:05;;;;;;;11.70;10.20;;;;;;;17.25;100.00;99998.00;4736633;30;20039;-92
2023/09/09 01:10:30;;;;;;;14.40;10.25;;;;;;;17.21;100.00;99998.19;4736190;30;20036;-92
2023/09/09 01:12:56;;;;;;;12.93;10.40;;;;;;;17.01;100.00;99971.56;4746286;30;20051;-92
2023/09/09 01:15:22;;;;;;;11.30;10.00;;;;;;;17.23;100.00;100013.03;4753605;30;20490;-93
2023/09/09 01:17:48;;;;;;;13.57;11.25;;;;;;;17.23;100.00;100021.78;4754060;30;20097;-92
2023/09/09 01:20:17;;;;;;;11.73;10.52;;;;;;;17.07;100.00;99994.84;4753839;30;20409;-92
2023/09/09 01:22:46;;;;;;;11.93;10.05;;;;;;;17.20;100.00;100019.38;4753623;30;20035;-91
2023/09/09 01:25:12;;;;;;;11.63;10.43;;;;;;;17.22;100.00;100020.09;4753595;30;20038;-91
2023/09/09 01:27:38;;;;;;;13.93;10.27;;;;;;;17.19;100.00;100012.41;4753747;30;20554;-91
2023/09/09 01:31:12;;;;;;;14.13;11.43;;;;;;;17.21;100.00;100016.63;4754767;30;20111;-93
2023/09/09 01:34:51;;;;;;;11.43;9.98;;;;;;;17.20;100.00;100006.22;4646949;30;20143;-93
2023/09/09 01:37:58;;;;;;;12.00;10.70;;;;;;;17.22;100.00;100012.19;4598983;31;20094;-92
2023/09/09 01:40:44;;;;;;;15.18;11.30;;;;;;;17.21;100.00;100010.53;4562904;31;20592;-93
2023/09/09 01:43:30;;;;;;;14.10;10.50;;;;;;;17.21;100.00;100008.72;4562991;31;20044;-92
2023/09/09 01:46:16;;;;;;;11.60;10.40;;;;;;;17.07;100.00;99990.41;4548972;31;20159;-92
2023/09/09 01:49:03;;;;;;;13.00;11.00;;;;;;;17.03;100.00;99996.81;4546815;31;20073;-91
2023/09/09 01:51:28;;;;;;;12.68;10.38;;;;;;;17.15;100.00;100017.06;4560011;31;20073;-92
2023/09/09 01:53:54;;;;;;;12.20;10.77;;;;;;;17.14;100.00;100015.34;4544335;31;20485;-92
2023/09/09 01:56:20;;;;;;;12.55;11.23;;;;;;;17.02;100.00;99999.53;4546740;31;20049;-93
2023/09/09 01:58:46;;;;;;;11.85;10.52;;;;;;;16.95;100.00;99992.06;4532718;31;20054;-92
2023/09/09 02:01:11;;;;;;;11.00;9.90;;;;;;;17.09;100.00;100020.09;4560262;31;20045;-92
2023/09/09 02:03:37;;;;;;;12.25;10.70;;;;;;;17.10;100.00;100015.66;4534495;31;20072;-93
2023/09/09 02:06:03;;;;;;;11.70;9.98;;;;;;;17.11;100.00;100009.47;4546810;31;20049;-93
2023/09/09 02:08:29;;;;;;;11.80;10.60;;;;;;;17.11;100.00;100009.47;4530177;31;20053;-92
2023/09/09 02:10:55;;;;;;;11.13;10.02;;;;;;;17.11;100.00;100009.47;4547646;31;20117;-93
2023/09/09 02:13:20;;;;;;;13.13;10.80;;;;;;;17.08;100.00;100013.13;4548838;31;20062;-92
2023/09/09 02:16:05;;;;;;;14.80;11.40;;;;;;;17.09;100.00;100011.34;4530342;31;20065;-93
2023/09/09 02:18:51;;;;;;;14.95;11.25;;;;;;;17.04;100.00;100013.47;4578656;31;20044;-93
2023/09/09 02:21:16;;;;;;;12.60;10.88;;;;;;;17.03;100.00;100011.78;4592875;31;20048;-92
2023/09/09 02:23:42;;;;;;;13.30;10.45;;;;;;;17.02;100.00;100010.91;4595728;31;20538;-92
2023/09/09 02:26:08;;;;;;;13.15;10.77;;;;;;;17.00;100.00;100006.72;4582264;31;20543;-92
2023/09/09 02:28:34;;;;;;;11.55;10.32;;;;;;;17.00;100.00;100011.97;4595538;31;20059;-92
2023/09/09 02:31:00;;;;;;;11.55;10.00;;;;;;;16.99;100.00;100007.66;4646992;30;20039;-93
2023/09/09 02:33:26;;;;;;;12.50;11.23;;;;;;;16.96;100.00;100009.53;4665476;30;20049;-93
2023/09/09 02:36:12;;;;;;;13.75;10.48;;;;;;;16.97;100.00;100005.13;4697175;30;20040;-92
2023/09/09 02:38:58;;;;;;;12.27;10.48;;;;;;;16.96;100.00;100008.69;4656305;30;20527;-92
2023/09/09 02:41:44;;;;;;;12.48;10.45;;;;;;;16.92;100.00;100009.84;4662763;30;20078;-93
2023/09/09 02:44:29;;;;;;;12.55;10.68;;;;;;;16.80;100.00;99992.25;4633966;30;20043;-93
2023/09/09 02:47:17;;;;;;;11.90;10.70;;;;;;;16.87;100.00;100004.91;4629637;30;20123;-93
2023/09/09 02:50:26;;;;;;;12.43;10.65;;;;;;;16.87;100.00;100009.31;4638633;30;20035;-93
2023/09/09 02:53:12;;;;;;;13.43;10.98;;;;;;;16.83;100.00;100010.47;4612224;31;20040;-93
2023/09/09 02:56:17;;;;;;;12.15;10.27;;;;;;;16.66;100.00;99991.38;4621026;31;20569;-93
2023/09/09 02:59:07;;;;;;;11.90;10.55;;;;;;;16.80;100.00;100006.25;4614405;31;20415;-93
2023/09/09 03:02:13;;;;;;;11.63;10.43;;;;;;;16.76;100.00;100011.81;4605594;31;20036;-93
2023/09/09 03:05:19;;;;;;;15.32;11.80;;;;;;;16.64;100.00;99988.00;4601087;31;20047;-93
2023/09/09 03:08:26;;;;;;;11.90;10.45;;;;;;;16.73;100.00;100017.28;4565559;31;20049;-92
2023/09/09 03:11:12;;;;;;;12.82;10.63;;;;;;;16.71;100.00;100012.94;4524133;31;20105;-93
2023/09/09 03:13:38;;;;;;;12.00;10.77;;;;;;;16.69;100.00;100021.88;4524588;31;20066;-94
2023/09/09 03:16:04;;;;;;;13.00;10.88;;;;;;;16.67;100.00;100024.59;4530239;31;20105;-93
2023/09/09 03:18:49;;;;;;;14.60;11.90;;;;;;;16.61;100.00;100019.75;4516314;31;20499;-92
2023/09/09 03:21:15;;;;;;;11.90;10.70;;;;;;;16.60;100.00;100022.47;4526597;31;20050;-92
2023/09/09 03:23:41;;;;;;;13.27;11.85;;;;;;;16.40;100.00;99993.09;4514029;31;20055;-93
2023/09/09 03:26:10;;;;;;;13.88;12.32;;;;;;;16.53;100.00;100021.22;4514124;31;20058;-92
2023/09/09 03:28:36;;;;;;;13.07;11.68;;;;;;;16.52;100.00;100024.75;4515460;31;20047;-93
2023/09/09 03:31:01;;;;;;;13.52;11.65;;;;;;;16.48;100.00;100029.41;4472208;31;20055;-92
2023/09/09 03:33:27;;;;;;;13.57;11.85;;;;;;;16.43;100.00;100016.56;4479563;31;20128;-92
2023/09/09 03:35:53;;;;;;;13.10;11.65;;;;;;;16.40;100.00;100018.53;4485211;31;20051;-92
2023/09/09 03:38:21;;;;;;;14.05;11.63;;;;;;;16.37;100.00;100019.56;4478199;31;20055;-92
2023/09/09 03:40:47;;;;;;;12.98;11.52;;;;;;;16.31;100.00;100017.34;4516866;31;20054;-93
2023/09/09 03:43:12;;;;;;;12.40;11.10;;;;;;;16.24;100.00;100023.09;4565019;31;20045;-93
2023/09/09 03:45:38;;;;;;;13.15;11.85;;;;;;;16.16;100.00;100020.94;4591393;31;20126;-93
2023/09/09 03:48:04;;;;;;;14.55;12.00;;;;;;;16.11;100.00;100015.16;4614465;31;20043;-91
2023/09/09 03:50:30;;;;;;;15.10;11.88;;;;;;;16.08;100.00;100021.41;4627256;31;20051;-92
2023/09/09 03:52:56;;;;;;;13.65;11.50;;;;;;;16.07;100.00;100013.66;4631086;30;20578;-92
2023/09/09 03:55:22;;;;;;;14.82;12.75;;;;;;;16.01;100.00;100021.91;4617079;30;20138;-92
2023/09/09 03:58:07;;;;;;;15.00;12.48;;;;;;;15.88;100.00;100012.16;4628821;30;20052;-91
2023/09/09 04:00:36;;;;;;;15.57;11.77;;;;;;;15.67;100.00;99968.88;4690831;30;20040;-93
2023/09/09 04:03:02;;;;;;;13.18;11.18;;;;;;;15.83;100.00;100002.91;4722587;30;20507;-92
2023/09/09 04:05:28;;;;;;;15.48;11.65;;;;;;;15.78;100.00;100008.44;4736969;30;20047;-92
2023/09/09 04:07:58;;;;;;;14.10;12.38;;;;;;;15.79;100.00;100015.38;4736702;30;20032;-93
2023/09/09 04:10:23;;;;;;;16.58;12.63;;;;;;;15.83;100.00;100023.91;4722401;30;20040;-92
2023/09/09 04:12:49;;;;;;;14.82;12.20;;;;;;;15.83;100.00;100023.91;4758673;30;20486;-92
2023/09/09 04:15:15;;;;;;;14.57;11.73;;;;;;;15.82;100.00;100024.84;4768933;30;20127;-92
2023/09/09 04:18:00;;;;;;;14.52;12.93;;;;;;;15.73;100.00;100012.31;4754159;30;20036;-91
2023/09/09 04:20:26;;;;;;;15.35;12.02;;;;;;;15.81;100.00;100026.66;4719020;30;20123;-93
2023/09/09 04:22:51;;;;;;;13.13;11.55;;;;;;;15.82;100.00;100033.56;4718767;30;20043;-92
2023/09/09 04:25:37;;;;;;;14.88;11.80;;;;;;;15.85;100.00;100024.66;4710788;30;20048;-92
2023/09/09 04:28:04;;;;;;;14.18;12.30;;;;;;;15.78;100.00;100016.31;4699604;30;20045;-91
2023/09/09 04:30:29;;;;;;;15.10;13.10;;;;;;;15.83;100.00;100031.78;4715392;30;20052;-93
2023/09/09 04:33:17;;;;;;;15.13;13.20;;;;;;;15.83;100.00;100029.16;4698225;30;20132;-92
2023/09/09 04:35:59;;;;;;;19.75;14.25;;;;;;;15.79;100.00;100025.03;4671924;30;20069;-93
2023/09/09 04:38:24;;;;;;;15.85;13.15;;;;;;;15.81;100.00;100026.66;4658025;30;20112;-91
2023/09/09 04:40:50;;;;;;;16.13;13.73;;;;;;;15.84;100.00;100029.06;4681281;30;20113;-93
2023/09/09 04:43:58;;;;;;;16.38;14.48;;;;;;;15.74;100.00;100008.72;4681598;30;20060;-93
2023/09/09 04:47:29;;;;;;;24.30;16.52;;;;;;;15.77;100.00;100009.38;4630220;31;20130;-93
2023/09/09 04:50:59;;;;;;;19.10;17.10;;;;;;;15.42;100.00;99951.13;4630001;30;20688;-92
2023/09/09 04:53:27;;;;;;;25.10;18.77;;;;;;;16.06;100.00;100033.84;4612882;31;20067;-93
2023/09/09 04:55:53;;;;;;;21.42;17.38;;;;;;;16.08;100.00;100034.56;4607920;31;20443;-94
2023/09/09 04:58:18;;;;;;;21.25;18.92;;;;;;;16.18;100.00;100030.44;4596581;31;20051;-93
2023/09/09 05:01:04;;;;;;;20.60;18.13;;;;;;;16.22;100.00;100028.41;4613011;31;20070;-92
2023/09/09 05:03:32;;;;;;;21.45;18.70;;;;;;;16.32;100.00;100031.31;4613060;31;20079;-92
2023/09/09 05:06:17;;;;;;;21.85;18.13;;;;;;;16.34;100.00;100011.88;4612561;31;20210;-92
2023/09/09 05:08:43;;;;;;;21.02;18.83;;;;;;;16.53;100.00;100021.22;4612827;31;20047;-92
2023/09/09 05:11:11;;;;;;;20.58;17.95;;;;;;;16.71;100.00;100030.50;4612855;31;20415;-92
2023/09/09 05:14:16;;;;;;;20.58;17.92;;;;;;;16.91;100.00;100031.84;4629152;30;20055;-93
2023/09/09 05:16:41;;;;;;;23.65;18.67;;;;;;;17.14;100.00;100036.41;4628280;30;20056;-93
2023/09/09 05:19:10;;;;;;;22.35;17.58;;;;;;;17.34;100.00;100034.22;4612979;31;20115;-93
2023/09/09 05:21:55;;;;;;;21.70;19.00;;;;;;;17.58;100.00;100032.53;4577895;31;20044;-93
2023/09/09 05:24:23;;;;;;;19.92;17.55;;;;;;;17.77;100.00;100036.53;4588627;31;20052;-92
2023/09/09 05:27:10;;;;;;;21.90;18.17;;;;;;;17.90;100.00;100039.97;4590914;31;20041;-92
2023/09/09 05:29:35;;;;;;;20.35;17.75;;;;;;;18.03;100.00;100039.94;4588693;31;20083;-92
2023/09/09 05:32:41;;;;;;;18.02;16.27;;;;;;;18.24;100.00;100038.41;4612530;31;20086;-94
2023/09/09 05:36:09;;;;;;;22.52;17.13;;;;;;;18.50;100.00;100038.31;4646234;30;20039;-93
2023/09/09 05:39:14;;;;;;;17.35;15.50;;;;;;;18.89;100.00;100050.41;4640697;30;20114;-92
2023/09/09 05:42:05;;;;;;;17.05;15.27;;;;;;;19.17;100.00;100051.78;4662634;30;20485;-93
2023/09/09 05:44:51;;;;;;;18.15;15.60;;;;;;;19.47;100.00;100053.91;4647774;30;20146;-92
2023/09/09 05:47:37;;;;;;;20.05;16.67;;;;;;;19.58;100.00;100053.06;4616637;31;20104;-93
2023/09/09 05:50:23;;;;;;;19.50;15.70;;;;;;;19.67;100.00;100047.91;4624093;30;20035;-92
2023/09/09 05:52:49;;;;;;;17.15;14.88;;;;;;;19.71;100.00;100045.88;4605036;30;20049;-91
2023/09/09 05:55:36;;;;;;;18.80;16.15;;;;;;;19.89;100.00;100048.91;4612466;31;20035;-92
2023/09/09 05:58:42;;;;;;;17.38;14.80;;;;;;;19.94;100.00;100022.94;4640354;30;20146;-94
2023/09/09 06:01:07;;;;;;;19.80;15.40;;;;;;;20.23;100.00;100052.34;4659531;30;20050;-93
2023/09/09 06:03:33;;;;;;;16.45;14.60;;;;;;;20.35;100.00;100042.53;4659818;30;20142;-92
2023/09/09 06:06:19;;;;;;;16.45;14.10;;;;;;;20.48;100.00;100045.94;4641083;30;20043;-94
2023/09/09 06:08:45;;;;;;;16.23;14.50;;;;;;;20.64;100.00;100046.31;4647712;30;20047;-91
2023/09/09 06:11:11;;;;;;;16.90;15.20;;;;;;;20.58;100.00;100015.09;4662182;30;20045;-92
2023/09/09 06:13:37;;;;;;;14.77;13.23;;;;;;;21.01;100.00;100045.09;4633918;30;20043;-91
2023/09/09 06:16:03;;;;;;;17.98;14.02;;;;;;;21.29;100.00;100052.41;4624391;30;20055;-91
2023/09/09 06:18:28;;;;;;;15.15;13.07;;;;;;;21.59;100.00;100062.22;4635441;30;20545;-93
2023/09/09 06:20:54;;;;;;;14.38;12.98;;;;;;;21.78;99.18;100048.19;4644708;30;20106;-91
2023/09/09 06:23:19;;;;;;;16.40;14.48;;;;;;;22.00;97.26;100060.44;4644913;30;20051;-92
2023/09/09 06:25:45;;;;;;;13.52;12.13;;;;;;;22.20;97.28;100055.19;4630843;30;20571;-91
2023/09/09 06:28:10;;;;;;;13.93;12.57;;;;;;;22.53;96.72;100057.50;4631051;30;20041;-92
2023/09/09 06:30:36;;;;;;;14.23;12.73;;;;;;;22.69;95.37;100056.97;4628161;31;20556;-92
2023/09/09 06:33:04;;;;;;;12.75;11.35;;;;;;;22.96;94.50;100058.09;4658877;30;20127;-90
2023/09/09 06:35:29;;;;;;;13.60;12.20;;;;;;;23.27;93.88;100061.44;4682158;30;20142;-92
2023/09/09 06:37:55;;;;;;;13.48;12.07;;;;;;;23.58;92.46;100065.53;4691012;30;20049;-92
2023/09/09 06:40:21;;;;;;;15.20;11.63;;;;;;;23.73;90.64;100052.66;4717687;30;20049;-91
2023/09/09 06:42:46;;;;;;;14.65;12.85;;;;;;;24.03;89.16;100061.31;4733938;30;20047;-90
2023/09/09 06:45:12;;;;;;;13.10;11.50;;;;;;;24.04;87.54;100068.31;4734324;30;20092;-91
2023/09/09 06:47:38;;;;;;;15.27;12.20;;;;;;;23.98;87.97;100055.63;4734096;30;20116;-91
2023/09/09 06:50:04;;;;;;;15.40;12.60;;;;;;;24.14;87.44;100069.09;4733923;30;20047;-91
2023/09/09 06:52:31;;;;;;;13.52;12.13;;;;;;;24.37;86.62;100066.88;4734040;30;20487;-92
2023/09/09 06:54:56;;;;;;;15.13;12.73;;;;;;;24.41;84.96;100073.59;4719391;30;20044;-91
2023/09/09 06:57:22;;;;;;;16.02;12.43;;;;;;;24.33;84.62;100070.81;4734104;30;20054;-91
2023/09/09 06:59:47;;;;;;;13.65;12.25;;;;;;;24.38;84.35;100080.06;4733892;30;20041;-92
2023/09/09 07:02:13;;;;;;;16.30;12.48;;;;;;;24.38;84.69;100064.09;4733684;30;20460;-92
2023/09/09 07:04:38;;;;;;;14.85;12.25;;;;;;;24.69;84.55;100074.38;4733793;30;20040;-92
2023/09/09 07:07:04;;;;;;;13.90;12.30;;;;;;;24.87;85.24;100053.91;4719714;30;20087;-91
2023/09/09 07:09:29;;;;;;;13.25;10.90;;;;;;;25.39;82.48;100079.81;4736861;30;20489;-91
2023/09/09 07:11:54;;;;;;;17.45;11.85;;;;;;;25.46;80.97;100059.53;4736261;30;20178;-91
2023/09/09 07:14:20;;;;;;;12.07;10.73;;;;;;;25.92;80.42;100089.50;4736617;30;20028;-91
2023/09/09 07:16:45;;;;;;;11.88;10.55;;;;;;;26.04;79.63;100087.34;4736211;30;20066;-91
2023/09/09 07:19:11;;;;;;;13.60;11.13;;;;;;;26.21;79.31;100083.78;4736572;30;20067;-88
2023/09/09 07:22:00;;;;;;;14.57;11.45;;;;;;;26.71;78.09;100084.72;4735941;30;20599;-93
2023/09/09 07:24:26;;;;;;;12.32;11.07;;;;;;;27.28;75.53;100082.13;4698622;30;20573;-91
2023/09/09 07:26:52;;;;;;;11.45;9.80;;;;;;;27.91;75.38;100081.31;4684013;30;20046;-93
2023/09/09 07:29:38;;;;;;;11.95;10.68;;;;;;;28.91;72.06;100083.28;4681385;30;20512;-92
2023/09/09 07:32:26;;;;;;;12.48;10.45;;;;;;;30.11;69.91;100040.31;4681716;30;20049;-93
2023/09/09 07:35:11;;;;;;;12.60;10.38;;;;;;;31.23;66.63;100078.28;4681313;30;20120;-92
2023/09/09 07:37:58;;;;;;;13.60;11.70;;;;;;;31.44;65.70;100088.19;4635701;30;20414;-92
2023/09/09 07:40:43;;;;;;;11.57;9.52;;;;;;;32.02;64.53;100089.56;4646710;30;20120;-93
2023/09/09 07:43:30;;;;;;;15.32;10.02;;;;;;;32.50;63.99;100097.66;4629452;31;20062;-92
2023/09/09 07:46:16;;;;;;;13.13;9.80;;;;;;;32.72;62.51;100070.53;4607551;31;20063;-93
2023/09/09 07:48:41;;;;;;;10.90;9.80;;;;;;;32.30;61.71;100085.97;4582747;31;20116;-93
2023/09/09 07:51:09;;;;;;;11.63;10.20;;;;;;;31.39;63.29;100088.75;4596797;31;20052;-93
2023/09/09 07:53:54;;;;;;;11.63;9.82;;;;;;;30.27;65.08;100093.84;4575134;31;20106;-92
2023/09/09 07:56:42;;;;;;;10.13;9.13;;;;;;;29.43;67.18;100064.56;4596061;31;20071;-92
2023/09/09 07:59:09;;;;;;;10.73;9.60;;;;;;;29.20;67.88;100079.88;4584003;31;20076;-93
2023/09/09 08:01:34;;;;;;;12.02;10.63;;;;;;;28.77;69.24;100085.72;4572866;31;20049;-93
2023/09/09 08:04:00;;;;;;;16.98;10.68;;;;;;;28.04;70.34;100060.19;4590637;31;20058;-92
2023/09/09 08:06:26;;;;;;;11.88;9.13;;;;;;;27.96;72.48;100080.81;4599393;31;20563;-92
2023/09/09 08:09:11;;;;;;;12.75;10.27;;;;;;;27.87;73.52;100079.16;4600392;31;20150;-92
2023/09/09 08:11:37;;;;;;;12.85;9.70;;;;;;;27.70;71.97;100079.19;4579656;31;20044;-92
2023/09/09 08:14:02;;;;;;;10.02;9.13;;;;;;;27.46;71.59;100079.22;4598421;31;20055;-91
2023/09/09 08:16:30;;;;;;;10.70;8.60;;;;;;;27.17;72.95;100074.44;4602098;31;20054;-92
2023/09/09 08:18:55;;;;;;;10.88;9.35;;;;;;;27.11;73.17;100082.13;4618880;30;20050;-93
2023/09/09 08:21:21;;;;;;;12.32;9.07;;;;;;;26.92;72.95;100086.91;4646702;30;20043;-91
2023/09/09 08:24:06;;;;;;;9.63;8.63;;;;;;;26.60;73.92;100085.91;4693535;30;20405;-92
2023/09/09 08:26:32;;;;;;;11.48;9.55;;;;;;;26.49;74.33;100083.53;4701483;30;20132;-91
2023/09/09 08:28:57;;;;;;;10.05;9.05;;;;;;;26.16;75.46;100067.38;4717603;30;20044;-92
2023/09/09 08:31:23;;;;;;;11.98;9.57;;;;;;;26.26;75.44;100085.97;4718198;30;20025;-92
2023/09/09 08:34:28;;;;;;;10.02;9.13;;;;;;;26.22;76.63;100090.78;4718226;30;20067;-92
2023/09/09 08:37:14;;;;;;;11.63;9.65;;;;;;;26.20;77.47;100086.59;4697430;30;20471;-92
2023/09/09 08:40:00;;;;;;;13.25;9.98;;;;;;;26.27;77.49;100087.63;4685543;30;20095;-93
2023/09/09 08:42:37;;;;;;;10.38;9.07;;;;;;;26.33;77.87;100087.78;4668662;30;20057;-92
2023/09/09 08:45:23;;;;;;;12.77;10.10;;;;;;;26.36;78.03;100081.31;4683219;30;20050;-92
2023/09/09 08:47:54;;;;;;;11.65;10.45;;;;;;;26.20;77.18;100090.09;4683234;30;20045;-92
2023/09/09 08:50:21;;;;;;;14.13;11.85;;;;;;;25.83;76.35;100085.94;4697481;30;20131;-90
2023/09/09 08:52:49;;;;;;;13.70;11.80;;;;;;;25.71;77.98;100089.03;4683328;30;20049;-92
2023/09/09 08:55:16;;;;;;;13.35;11.07;;;;;;;25.60;78.45;100082.09;4690453;30;20125;-92
2023/09/09 08:57:42;;;;;;;14.57;11.93;;;;;;;25.65;77.82;100079.78;4682899;30;20056;-93
2023/09/09 09:00:10;;;;;;;12.05;10.88;;;;;;;25.59;78.31;100086.59;4697280;30;20474;-92
2023/09/09 09:02:36;;;;;;;13.00;11.25;;;;;;;25.58;77.38;100079.59;4697158;30;20041;-92
2023/09/09 09:05:04;;;;;;;16.00;11.32;;;;;;;25.24;77.66;100020.91;4697084;30;20042;-92
2023/09/09 09:07:33;;;;;;;14.10;12.75;;;;;;;25.44;76.39;100079.34;4689217;30;20518;-91
2023/09/09 09:09:59;;;;;;;13.55;11.05;;;;;;;25.21;77.56;100053.19;4729938;30;20040;-92
2023/09/09 09:12:27;;;;;;;11.82;10.63;;;;;;;25.37;79.47;100065.81;4723240;30;20509;-93
2023/09/09 09:14:53;;;;;;;17.50;11.23;;;;;;;25.42;78.48;100065.34;4769001;30;20114;-92
2023/09/09 09:17:20;;;;;;;14.80;10.63;;;;;;;25.49;78.54;100061.84;4756496;30;20126;-92
2023/09/09 09:19:46;;;;;;;11.00;9.80;;;;;;;25.58;78.35;100068.09;4784111;30;20106;-91
2023/09/09 09:22:13;;;;;;;13.02;11.18;;;;;;;25.60;77.36;100064.28;4771024;30;20062;-91
2023/09/09 09:24:46;;;;;;;13.18;10.85;;;;;;;25.62;77.68;100062.28;4771062;30;20038;-92
2023/09/09 09:27:13;;;;;;;11.20;10.05;;;;;;;25.61;78.67;100051.75;4756277;30;20474;-91
2023/09/09 09:29:45;;;;;;;11.48;10.27;;;;;;;25.56;78.10;100064.75;4770919;30;20035;-91
2023/09/09 09:32:11;;;;;;;12.73;11.23;;;;;;;25.47;78.78;100050.53;4771784;30;20107;-92
2023/09/09 09:34:37;;;;;;;11.60;9.93;;;;;;;25.54;79.21;100066.75;4771272;30;20067;-91
2023/09/09 09:37:25;;;;;;;11.13;9.98;;;;;;;25.49;78.64;100048.53;4771020;30;20070;-94
2023/09/09 09:39:52;;;;;;;11.65;10.30;;;;;;;25.41;77.82;100029.84;4734694;30;20044;-92
2023/09/09 09:42:17;;;;;;;11.95;10.38;;;;;;;25.56;77.90;100057.56;4749122;30;20048;-91
2023/09/09 09:44:43;;;;;;;15.20;11.30;;;;;;;25.51;78.59;100059.06;4749252;30;20392;-91
2023/09/09 09:47:08;;;;;;;12.30;10.40;;;;;;;25.50;78.62;100068.88;4748975;30;20442;-91
2023/09/09 09:49:41;;;;;;;12.57;11.27;;;;;;;25.42;78.01;100046.66;4749050;30;20047;-92
2023/09/09 09:52:08;;;;;;;12.30;11.00;;;;;;;25.33;78.18;100046.63;4748922;30;20044;-91
2023/09/09 09:54:35;;;;;;;15.10;11.38;;;;;;;25.31;79.99;100042.41;4734458;30;20040;-92
2023/09/09 09:57:03;;;;;;;12.05;10.73;;;;;;;25.52;79.93;100060.72;4734245;30;20106;-92
2023/09/09 09:59:33;;;;;;;12.95;10.80;;;;;;;25.52;79.93;100050.88;4747049;30;20044;-92
2023/09/09 10:01:59;;;;;;;13.75;12.02;;;;;;;25.46;77.72;100048.88;4748914;30;20040;-91
2023/09/09 10:04:27;;;;;;;14.07;11.20;;;;;;;25.52;77.26;100066.06;4749141;30;20035;-92
2023/09/09 10:06:58;;;;;;;11.93;10.63;;;;;;;25.41;77.80;100050.31;4749174;30;20105;-92
2023/09/09 10:09:33;;;;;;;12.15;10.77;;;;;;;25.46;78.32;100050.69;4723514;30;20097;-91
2023/09/09 10:12:10;;;;;;;13.48;11.13;;;;;;;25.25;78.24;100006.56;4773593;30;20051;-92
2023/09/09 10:14:36;;;;;;;11.00;9.68;;;;;;;25.66;77.37;100052.13;4774361;30;20389;-93
2023/09/09 10:17:06;;;;;;;10.68;9.65;;;;;;;25.78;77.35;100048.22;4754909;30;20040;-92
2023/09/09 10:19:34;;;;;;;10.23;9.23;;;;;;;25.82;76.43;100033.56;4755341;30;20165;-92
2023/09/09 10:22:00;;;;;;;10.25;8.93;;;;;;;26.01;77.15;100042.31;4755118;30;20047;-92
2023/09/09 10:24:28;;;;;;;10.68;9.57;;;;;;;26.00;76.31;100022.81;4741460;30;20133;-93
2023/09/09 10:26:56;;;;;;;11.20;9.68;;;;;;;26.10;75.75;100038.69;4738180;30;20040;-93
2023/09/09 10:29:22;;;;;;;11.48;9.32;;;;;;;26.16;77.22;100043.34;4755068;30;20036;-93
2023/09/09 10:31:49;;;;;;;10.80;9.65;;;;;;;26.18;75.85;100041.38;4740602;30;20114;-93
2023/09/09 10:34:17;;;;;;;10.45;9.40;;;;;;;26.16;74.66;100042.53;4754796;30;20071;-93
2023/09/09 10:36:43;;;;;;;11.13;10.02;;;;;;;26.19;75.66;100045.72;4755391;30;20032;-93
2023/09/09 10:39:11;;;;;;;11.80;9.85;;;;;;;26.18;74.95;100041.38;4755040;30;20044;-92
2023/09/09 10:41:58;;;;;;;10.40;8.82;;;;;;;26.22;75.37;100042.72;4734682;30;20079;-92
2023/09/09 10:44:23;;;;;;;9.65;8.75;;;;;;;26.24;72.89;100043.38;4719760;30;20068;-91
2023/09/09 10:46:54;;;;;;;9.65;8.65;;;;;;;26.27;73.32;100040.38;4719772;30;20435;-92
2023/09/09 10:49:24;;;;;;;11.35;9.25;;;;;;;26.34;74.40;100040.59;4727793;30;20500;-89
2023/09/09 10:51:51;;;;;;;8.98;8.07;;;;;;;26.42;74.74;100037.06;4716481;30;20052;-90
2023/09/09 10:54:23;;;;;;;10.23;8.25;;;;;;;26.44;71.67;100037.75;4723630;30;20186;-90
2023/09/09 10:57:44;;;;;;;11.73;8.32;;;;;;;26.37;71.38;100029.56;4735189;30;20048;-95
2023/09/09 11:00:39;;;;;;;9.35;8.38;;;;;;;25.83;70.85;99965.88;4733643;30;20037;-90
2023/09/09 11:03:11;;;;;;;10.95;8.35;;;;;;;26.30;72.11;100034.72;4718904;30;20144;-85
2023/09/09 11:05:54;;;;;;;;;;;;;;;26.23;69.99;100025.69;4734182;30;20041;-91
2023/09/09 11:09:02;;;;;;;9.77;7.70;;;;;;;26.23;71.20;100016.84;4734229;30;19919;-92
2023/09/09 11:11:44;;;;;;;9.13;8.23;;;;;;;25.93;68.95;99978.25;4647622;30;20042;-89
2023/09/09 11:14:10;;;;;;;9.77;8.88;;;;;;;26.19;70.65;100031.53;4681408;30;20066;-88
2023/09/09 11:17:28;;;;;;;9.35;8.35;;;;;;;26.22;70.83;100029.38;4682270;30;20255;-94
2023/09/09 11:19:54;;;;;;;9.35;8.43;;;;;;;26.06;70.52;100000.78;4681373;30;20044;-87
2023/09/09 11:22:21;;;;;;;9.25;7.93;;;;;;;26.09;69.98;100004.97;4681709;30;20038;-91
2023/09/09 11:24:47;;;;;;;9.82;8.65;;;;;;;26.13;70.39;100007.16;4667113;30;20081;-90
2023/09/09 11:27:53;;;;;;;8.73;7.78;;;;;;;26.26;70.44;100012.03;4691815;30;20297;-95
2023/09/09 11:30:42;;;;;;;9.90;8.55;;;;;;;26.31;70.72;100020.38;4682796;30;20517;-93
2023/09/09 12:21:09;;;;;;;9.18;8.15;;;;;;;26.38;70.80;99976.00;4787314;29;20066;-84
2023/09/09 12:23:36;;;;;;;9.48;8.48;;;;;;;26.38;71.06;99997.34;4771919;30;20035;-92
2023/09/09 12:26:16;;;;;;;12.38;8.82;;;;;;;26.34;70.63;99987.19;4788297;29;20089;-91
2023/09/09 12:28:43;;;;;;;11.80;8.15;;;;;;;26.40;70.72;99981.16;4787003;30;20393;-91